Time;durP1;ratioP1;P1;durP2;ratioP2;P2;SDS_P1;SDS_P2;PMS_P1;PMS_P2;Temp;Humidity;BMP_temperature;BMP_pressure;BME280_temperature;BME280_humidity;BME280_pressure;Samples;Min_cycle;Max_cycle;Signal;HPM_P1;HPM_P2
2022/01/15 00:01:27;;;;;;;30.25;21.77;;;;;;;;;;5017043;28;20033;-77
2022/01/15 00:03:52;;;;;;;30.20;20.63;;;;;;;;;;4999336;28;20069;-77
2022/01/15 00:06:18;;;;;;;28.58;21.38;;;;;;;;;;5000149;28;20048;-77
2022/01/15 00:08:43;;;;;;;28.55;20.15;;;;;;;;;;5016345;28;20112;-78
2022/01/15 00:11:09;;;;;;;27.52;20.63;;;;;;;;;;5016072;28;20037;-77
2022/01/15 00:13:34;;;;;;;26.77;19.85;;;;;;;;;;5032666;28;20112;-77
2022/01/15 00:16:07;;;;;;;24.73;19.38;;;;;;;;;;5032716;28;20051;-78
2022/01/15 00:18:45;;;;;;;27.35;18.83;;;;;;;;;;5021269;28;20037;-77
2022/01/15 00:21:10;;;;;;;24.40;17.73;;;;;;;;;;5045919;28;20041;-77
2022/01/15 00:23:36;;;;;;;25.23;19.67;;;;;;;;;;5017583;28;20061;-77
2022/01/15 00:26:02;;;;;;;27.10;20.70;;;;;;;;;;5008499;28;20041;-77
2022/01/15 00:28:27;;;;;;;23.80;18.35;;;;;;;;;;5029463;28;20076;-77
2022/01/15 00:30:53;;;;;;;27.00;19.80;;;;;;;;;;4996320;28;20083;-78
2022/01/15 00:33:18;;;;;;;24.27;18.42;;;;;;;;;;4996312;28;20384;-77
2022/01/15 00:35:43;;;;;;;25.50;17.60;;;;;;;;;;5014685;28;20026;-77
2022/01/15 00:38:09;;;;;;;23.15;18.33;;;;;;;;;;4999465;28;20083;-77
2022/01/15 00:40:35;;;;;;;23.60;18.13;;;;;;;;;;4996058;28;20034;-78
2022/01/15 00:43:00;;;;;;;23.88;17.65;;;;;;;;;;5012567;28;20045;-77
2022/01/15 00:45:29;;;;;;;25.50;18.25;;;;;;;;;;5012578;28;20485;-77
2022/01/15 00:47:55;;;;;;;24.95;18.60;;;;;;;;;;5028671;28;20049;-77
2022/01/15 00:50:20;;;;;;;25.08;17.98;;;;;;;;;;5016005;28;20029;-77
2022/01/15 00:52:46;;;;;;;24.17;17.33;;;;;;;;;;5015345;28;20037;-77
2022/01/15 00:55:12;;;;;;;20.55;16.55;;;;;;;;;;5015807;28;20091;-78
2022/01/15 00:57:38;;;;;;;22.38;16.77;;;;;;;;;;4999821;28;20447;-77
2022/01/15 01:00:05;;;;;;;20.90;15.50;;;;;;;;;;4999464;28;20033;-78
2022/01/15 01:02:30;;;;;;;28.33;17.30;;;;;;;;;;4999441;28;20037;-77
2022/01/15 01:04:56;;;;;;;22.38;15.73;;;;;;;;;;5015457;28;20530;-77
2022/01/15 01:07:21;;;;;;;19.58;15.02;;;;;;;;;;5048593;28;20392;-77
2022/01/15 01:23:05;;;;;;;19.00;14.77;;;;;;;;;;5016062;28;20029;-77
2022/01/15 01:25:37;;;;;;;17.52;13.68;;;;;;;;;;5013478;28;20637;-77
2022/01/15 01:28:06;;;;;;;;;;;;;;;;;;5020469;28;20037;-77
2022/01/15 01:30:39;;;;;;;18.35;13.35;;;;;;;;;;4998480;28;19924;-77
2022/01/15 01:33:31;;;;;;;18.10;14.35;;;;;;;;;;5016238;28;20029;-77
2022/01/15 01:36:08;;;;;;;17.52;13.82;;;;;;;;;;4986323;28;20053;-77
2022/01/15 01:38:45;;;;;;;16.17;12.52;;;;;;;;;;5011652;28;20030;-78
2022/01/15 01:41:16;;;;;;;18.23;13.85;;;;;;;;;;4996999;28;20030;-77
2022/01/15 01:43:45;;;;;;;18.52;13.63;;;;;;;;;;5019872;28;20128;-77
2022/01/15 01:46:32;;;;;;;16.15;12.40;;;;;;;;;;5027955;28;20026;-77
2022/01/15 01:48:58;;;;;;;16.30;12.70;;;;;;;;;;5025588;28;20034;-77
2022/01/15 01:51:29;;;;;;;15.23;11.93;;;;;;;;;;5027586;28;20546;-77
2022/01/15 01:53:56;;;;;;;14.98;12.25;;;;;;;;;;5011603;28;20045;-78
2022/01/15 01:56:21;;;;;;;15.15;11.38;;;;;;;;;;5027794;28;20561;-78
2022/01/15 01:58:47;;;;;;;15.13;11.90;;;;;;;;;;5023384;28;20396;-78
2022/01/15 02:01:12;;;;;;;14.93;12.30;;;;;;;;;;5011436;28;20041;-78
2022/01/15 02:03:38;;;;;;;15.73;11.25;;;;;;;;;;5010875;28;20028;-77
2022/01/15 02:06:03;;;;;;;13.57;11.13;;;;;;;;;;5027779;28;20088;-77
2022/01/15 02:08:30;;;;;;;15.02;11.80;;;;;;;;;;5011262;28;20459;-77
2022/01/15 02:10:57;;;;;;;12.30;10.52;;;;;;;;;;5023417;28;20072;-77
2022/01/15 02:13:22;;;;;;;13.65;10.27;;;;;;;;;;5030811;28;20037;-77
2022/01/15 02:15:48;;;;;;;13.98;11.20;;;;;;;;;;4997965;28;20487;-77
2022/01/15 02:18:14;;;;;;;13.75;10.52;;;;;;;;;;5013946;28;20598;-78
2022/01/15 02:21:02;;;;;;;13.75;11.48;;;;;;;;;;4994275;28;20056;-78
2022/01/15 02:23:34;;;;;;;13.05;10.10;;;;;;;;;;4999640;28;20163;-77
2022/01/15 02:26:04;;;;;;;;;;;;;;;;;;5030953;28;20029;-77
2022/01/15 02:28:40;;;;;;;12.32;10.05;;;;;;;;;;5030693;28;19909;-78
2022/01/15 02:31:10;;;;;;;12.75;9.93;;;;;;;;;;5045060;28;20423;-77
2022/01/15 02:33:37;;;;;;;11.88;9.52;;;;;;;;;;5012741;28;20033;-77
2022/01/15 02:36:04;;;;;;;13.10;9.68;;;;;;;;;;5011089;28;20048;-77
2022/01/15 02:38:29;;;;;;;11.07;9.40;;;;;;;;;;5027325;28;20034;-77
2022/01/15 02:40:55;;;;;;;10.30;8.77;;;;;;;;;;5027460;28;20072;-77
2022/01/15 02:43:27;;;;;;;12.48;9.95;;;;;;;;;;5043517;28;20033;-78
2022/01/15 02:45:57;;;;;;;;;;;;;;;;;;5026969;28;20033;-77
2022/01/15 02:48:27;;;;;;;12.88;9.20;;;;;;;;;;5026393;28;20353;-77
2022/01/15 02:50:52;;;;;;;11.98;9.30;;;;;;;;;;4994750;28;20072;-77
2022/01/15 02:53:18;;;;;;;11.40;8.80;;;;;;;;;;5028960;28;20033;-77
2022/01/15 02:55:45;;;;;;;11.40;8.57;;;;;;;;;;5030365;28;20373;-77
2022/01/15 02:58:10;;;;;;;10.60;8.32;;;;;;;;;;5047040;28;20032;-77
2022/01/15 03:00:36;;;;;;;10.88;8.63;;;;;;;;;;5030464;28;20033;-77
2022/01/15 03:03:01;;;;;;;11.70;9.10;;;;;;;;;;5020177;28;20048;-77
2022/01/15 03:05:27;;;;;;;10.15;8.63;;;;;;;;;;5030197;28;20048;-77
2022/01/15 03:07:52;;;;;;;11.20;8.70;;;;;;;;;;5016818;28;20033;-78
2022/01/15 03:10:18;;;;;;;10.85;8.70;;;;;;;;;;5017238;28;20091;-77
2022/01/15 03:12:44;;;;;;;10.35;8.10;;;;;;;;;;5046253;28;20029;-77
2022/01/15 03:15:13;;;;;;;10.45;8.05;;;;;;;;;;4997022;28;20060;-77
2022/01/15 03:17:39;;;;;;;11.45;8.15;;;;;;;;;;5030362;28;20615;-77
2022/01/15 03:20:05;;;;;;;11.90;8.48;;;;;;;;;;5013782;28;20049;-77
2022/01/15 03:22:30;;;;;;;9.73;8.15;;;;;;;;;;5030059;28;20041;-77
2022/01/15 03:24:56;;;;;;;9.85;7.43;;;;;;;;;;5013335;28;20041;-77
2022/01/15 03:27:24;;;;;;;10.23;7.35;;;;;;;;;;5013600;28;20041;-77
2022/01/15 03:29:50;;;;;;;10.25;7.18;;;;;;;;;;5030833;28;20059;-77
2022/01/15 03:32:16;;;;;;;9.60;7.88;;;;;;;;;;4997015;28;20455;-77
2022/01/15 03:34:42;;;;;;;9.48;6.95;;;;;;;;;;5004311;28;20598;-78
2022/01/15 03:37:07;;;;;;;10.05;7.30;;;;;;;;;;5030508;28;20038;-78
2022/01/15 03:39:35;;;;;;;9.90;8.43;;;;;;;;;;5030216;28;20025;-78
2022/01/15 03:42:01;;;;;;;9.10;7.18;;;;;;;;;;5030896;28;20075;-78
2022/01/15 03:44:26;;;;;;;9.40;8.32;;;;;;;;;;5033866;28;20033;-78
2022/01/15 03:46:52;;;;;;;9.27;7.18;;;;;;;;;;5049622;28;20088;-78
2022/01/15 03:49:17;;;;;;;9.13;7.07;;;;;;;;;;5029094;28;20038;-78
2022/01/15 03:51:43;;;;;;;9.20;7.30;;;;;;;;;;5013148;28;20038;-78
2022/01/15 03:54:08;;;;;;;10.32;7.63;;;;;;;;;;4997824;28;20026;-77
2022/01/15 03:56:34;;;;;;;9.48;6.97;;;;;;;;;;5013562;28;20022;-77
2022/01/15 03:58:59;;;;;;;10.98;8.48;;;;;;;;;;5013730;28;20080;-78
2022/01/15 04:01:25;;;;;;;9.85;6.95;;;;;;;;;;5013453;28;20026;-78
2022/01/15 04:03:50;;;;;;;9.30;7.43;;;;;;;;;;5016284;28;20037;-78
2022/01/15 04:06:16;;;;;;;8.25;6.40;;;;;;;;;;5034542;28;20029;-78
2022/01/15 04:08:41;;;;;;;8.95;7.05;;;;;;;;;;5032918;28;20041;-78
2022/01/15 04:11:07;;;;;;;8.88;7.13;;;;;;;;;;5033280;28;20499;-78
2022/01/15 04:13:33;;;;;;;8.80;6.40;;;;;;;;;;5033407;28;20049;-78
2022/01/15 04:16:00;;;;;;;9.25;6.50;;;;;;;;;;5016664;28;20037;-77
2022/01/15 04:18:28;;;;;;;8.43;6.65;;;;;;;;;;5032741;28;20068;-78
2022/01/15 04:20:53;;;;;;;10.10;7.47;;;;;;;;;;5032785;28;20491;-77
2022/01/15 04:23:19;;;;;;;9.10;7.00;;;;;;;;;;5015923;28;20026;-77
2022/01/15 04:25:44;;;;;;;8.82;6.38;;;;;;;;;;5032418;28;20040;-77
2022/01/15 04:28:11;;;;;;;9.55;6.88;;;;;;;;;;5012992;28;20076;-77
2022/01/15 04:30:40;;;;;;;8.32;6.70;;;;;;;;;;5012988;28;20042;-77
2022/01/15 04:33:05;;;;;;;8.57;6.07;;;;;;;;;;5012813;28;20022;-76
2022/01/15 04:35:31;;;;;;;9.68;6.93;;;;;;;;;;5016178;28;20139;-77
2022/01/15 04:38:03;;;;;;;8.10;6.32;;;;;;;;;;4983486;28;20365;-77
2022/01/15 04:40:29;;;;;;;6.65;5.47;;;;;;;;;;5017821;28;20033;-78
2022/01/15 04:42:54;;;;;;;6.97;5.75;;;;;;;;;;5013006;28;20040;-77
2022/01/15 04:45:20;;;;;;;8.02;6.25;;;;;;;;;;5016150;28;20491;-77
2022/01/15 04:47:45;;;;;;;7.65;6.20;;;;;;;;;;5015900;28;20038;-77
2022/01/15 04:50:14;;;;;;;7.55;5.75;;;;;;;;;;5032548;28;20037;-77
2022/01/15 04:52:40;;;;;;;8.25;7.00;;;;;;;;;;4995835;28;20037;-77
2022/01/15 04:55:06;;;;;;;7.95;6.45;;;;;;;;;;4985430;28;20432;-77
2022/01/15 04:57:32;;;;;;;7.10;5.45;;;;;;;;;;5032406;28;20072;-77
2022/01/15 04:59:57;;;;;;;6.88;5.60;;;;;;;;;;5032194;28;20116;-77
2022/01/15 05:02:23;;;;;;;7.68;5.35;;;;;;;;;;5031916;28;20033;-77
2022/01/15 05:04:48;;;;;;;7.30;5.47;;;;;;;;;;5032457;28;20095;-77
2022/01/15 05:07:13;;;;;;;7.25;5.50;;;;;;;;;;5031913;28;20410;-77
2022/01/15 05:09:39;;;;;;;8.75;6.18;;;;;;;;;;5013346;28;20061;-77
2022/01/15 05:12:23;;;;;;;7.95;6.07;;;;;;;;;;5031992;28;20025;-77
2022/01/15 05:14:49;;;;;;;6.47;4.70;;;;;;;;;;5018048;28;20045;-77
2022/01/15 05:17:14;;;;;;;7.80;5.60;;;;;;;;;;4998785;28;20372;-77
2022/01/15 05:19:40;;;;;;;6.63;5.32;;;;;;;;;;5031909;28;20037;-77
2022/01/15 05:22:05;;;;;;;5.82;4.70;;;;;;;;;;5031695;28;20079;-77
2022/01/15 05:24:31;;;;;;;6.63;5.72;;;;;;;;;;5012213;28;20396;-77
2022/01/15 05:26:57;;;;;;;6.57;5.13;;;;;;;;;;4984428;28;20088;-77
2022/01/15 05:29:22;;;;;;;6.68;5.18;;;;;;;;;;5031483;28;20037;-77
2022/01/15 05:31:48;;;;;;;6.45;5.10;;;;;;;;;;5042060;28;20033;-77
2022/01/15 05:34:13;;;;;;;7.43;5.80;;;;;;;;;;4979405;28;20030;-77
2022/01/15 05:36:41;;;;;;;5.88;4.60;;;;;;;;;;4995986;28;20065;-77
2022/01/15 05:39:07;;;;;;;6.03;4.97;;;;;;;;;;4980216;28;20396;-77
2022/01/15 05:41:33;;;;;;;6.28;5.00;;;;;;;;;;4979086;28;20034;-77
2022/01/15 05:44:01;;;;;;;6.40;4.85;;;;;;;;;;4990282;28;20042;-77
2022/01/15 05:46:28;;;;;;;7.32;5.43;;;;;;;;;;5011784;28;20030;-77
2022/01/15 05:48:54;;;;;;;6.68;5.38;;;;;;;;;;4995284;28;20065;-77
2022/01/15 05:51:19;;;;;;;7.20;5.45;;;;;;;;;;4998490;28;20033;-77
2022/01/15 05:53:46;;;;;;;6.05;5.25;;;;;;;;;;5048137;28;20487;-77
2022/01/15 05:56:11;;;;;;;6.97;5.07;;;;;;;;;;5047294;28;20037;-77
2022/01/15 05:58:37;;;;;;;6.22;5.07;;;;;;;;;;5031507;28;20049;-77
2022/01/15 06:01:02;;;;;;;7.05;5.70;;;;;;;;;;5014621;28;20046;-77
2022/01/15 06:03:28;;;;;;;7.15;5.00;;;;;;;;;;5030960;28;20033;-77
2022/01/15 06:05:53;;;;;;;7.22;5.35;;;;;;;;;;5030938;28;20033;-77
2022/01/15 06:08:18;;;;;;;6.45;4.97;;;;;;;;;;5047789;28;20403;-77
2022/01/15 06:10:44;;;;;;;6.32;4.90;;;;;;;;;;5030929;28;20564;-77
2022/01/15 06:13:10;;;;;;;7.70;5.18;;;;;;;;;;5014354;28;20423;-77
2022/01/15 06:15:35;;;;;;;6.22;5.10;;;;;;;;;;5014025;28;20044;-77
2022/01/15 06:18:01;;;;;;;5.38;4.60;;;;;;;;;;5014262;28;20116;-77
2022/01/15 06:20:26;;;;;;;5.97;4.70;;;;;;;;;;5014670;28;20061;-77
2022/01/15 06:22:51;;;;;;;6.30;4.88;;;;;;;;;;5030605;28;20052;-78
2022/01/15 06:25:17;;;;;;;5.75;4.30;;;;;;;;;;5013793;28;20057;-77
2022/01/15 06:27:42;;;;;;;7.88;5.63;;;;;;;;;;5030574;28;20108;-77
2022/01/15 06:30:08;;;;;;;5.97;4.68;;;;;;;;;;5030808;28;20033;-77
2022/01/15 06:32:36;;;;;;;5.80;4.72;;;;;;;;;;5029791;28;20108;-77
2022/01/15 06:35:09;;;;;;;6.47;4.55;;;;;;;;;;5023002;28;20033;-77
2022/01/15 06:37:35;;;;;;;6.85;5.03;;;;;;;;;;5030798;28;20056;-77
2022/01/15 06:40:00;;;;;;;6.07;5.03;;;;;;;;;;5030523;28;20403;-78
2022/01/15 06:42:26;;;;;;;5.20;4.45;;;;;;;;;;5014205;28;20036;-77
2022/01/15 06:44:51;;;;;;;6.75;4.97;;;;;;;;;;5014161;28;20387;-77
2022/01/15 06:47:17;;;;;;;5.63;4.63;;;;;;;;;;5013425;28;20099;-77
2022/01/15 06:49:42;;;;;;;6.97;4.97;;;;;;;;;;5013734;28;20037;-77
2022/01/15 06:52:07;;;;;;;6.03;4.90;;;;;;;;;;5046894;28;20034;-77
2022/01/15 06:54:33;;;;;;;6.75;5.55;;;;;;;;;;5063726;28;20038;-77
2022/01/15 06:56:58;;;;;;;7.03;5.40;;;;;;;;;;5030252;28;20030;-77
2022/01/15 06:59:24;;;;;;;6.97;5.00;;;;;;;;;;5047144;28;20387;-77
2022/01/15 07:01:49;;;;;;;5.65;4.20;;;;;;;;;;5029909;28;20471;-77
2022/01/15 07:04:15;;;;;;;6.55;4.88;;;;;;;;;;5046704;28;20038;-77
2022/01/15 07:06:40;;;;;;;5.25;4.15;;;;;;;;;;5013973;28;20104;-77
2022/01/15 07:09:05;;;;;;;6.05;4.47;;;;;;;;;;4996341;28;20041;-78
2022/01/15 07:11:31;;;;;;;6.50;4.60;;;;;;;;;;5011236;28;20151;-78
2022/01/15 07:13:56;;;;;;;6.10;4.65;;;;;;;;;;5037658;28;20108;-78
2022/01/15 07:16:22;;;;;;;5.55;4.50;;;;;;;;;;5030576;28;20029;-77
2022/01/15 07:18:47;;;;;;;6.25;4.70;;;;;;;;;;5050593;28;20128;-78
2022/01/15 07:21:13;;;;;;;7.20;5.88;;;;;;;;;;5051044;28;20499;-78
2022/01/15 07:23:40;;;;;;;5.57;4.18;;;;;;;;;;5017270;28;20057;-79
2022/01/15 07:26:05;;;;;;;7.07;5.55;;;;;;;;;;5017602;28;20021;-78
2022/01/15 07:28:31;;;;;;;5.90;4.60;;;;;;;;;;5033765;28;20111;-79
2022/01/15 07:30:57;;;;;;;5.93;5.07;;;;;;;;;;5017184;28;20029;-79
2022/01/15 07:33:23;;;;;;;6.82;5.28;;;;;;;;;;5050177;28;20487;-79
2022/01/15 07:35:48;;;;;;;5.82;4.72;;;;;;;;;;4999701;28;20034;-79
2022/01/15 07:38:14;;;;;;;6.43;4.38;;;;;;;;;;4996850;28;20060;-80
2022/01/15 07:40:40;;;;;;;6.50;4.85;;;;;;;;;;5012815;28;20034;-81
2022/01/15 07:43:06;;;;;;;7.25;4.75;;;;;;;;;;5050012;28;20040;-81
2022/01/15 07:45:31;;;;;;;6.80;5.55;;;;;;;;;;5033415;28;20057;-81
2022/01/15 07:47:57;;;;;;;6.63;5.03;;;;;;;;;;5016608;28;20045;-82
2022/01/15 07:50:25;;;;;;;11.50;5.40;;;;;;;;;;5016539;28;20456;-82
2022/01/15 07:52:51;;;;;;;8.30;5.60;;;;;;;;;;5032214;28;20449;-82
2022/01/15 07:55:17;;;;;;;6.85;4.90;;;;;;;;;;5033510;28;20532;-81
2022/01/15 07:57:44;;;;;;;9.77;6.22;;;;;;;;;;5000781;28;20484;-82
2022/01/15 08:00:11;;;;;;;6.95;5.38;;;;;;;;;;5017170;28;20033;-82
2022/01/15 08:02:36;;;;;;;10.25;5.72;;;;;;;;;;4996678;28;20057;-81
2022/01/15 08:05:02;;;;;;;10.55;5.63;;;;;;;;;;4997226;28;20504;-81
2022/01/15 08:07:27;;;;;;;9.85;5.82;;;;;;;;;;4985191;28;20052;-82
2022/01/15 08:09:53;;;;;;;10.82;6.70;;;;;;;;;;5000523;28;20021;-85
2022/01/15 08:12:21;;;;;;;10.35;6.43;;;;;;;;;;5046467;28;20045;-80
2022/01/15 08:14:46;;;;;;;13.00;6.28;;;;;;;;;;5010853;28;20033;-81
2022/01/15 08:17:12;;;;;;;8.05;5.80;;;;;;;;;;5015739;28;20060;-80
2022/01/15 08:19:37;;;;;;;10.10;6.35;;;;;;;;;;5016357;28;20049;-81
2022/01/15 08:22:03;;;;;;;8.95;5.65;;;;;;;;;;5015240;28;20476;-80
2022/01/15 08:24:28;;;;;;;9.15;5.72;;;;;;;;;;5016260;28;20092;-80
2022/01/15 08:26:54;;;;;;;10.15;6.00;;;;;;;;;;5015157;28;20042;-81
2022/01/15 08:29:19;;;;;;;9.95;5.50;;;;;;;;;;5015150;28;20427;-80
2022/01/15 08:31:45;;;;;;;7.82;5.75;;;;;;;;;;5012798;28;20113;-81
2022/01/15 08:34:10;;;;;;;9.88;6.03;;;;;;;;;;5005829;28;20053;-81
2022/01/15 08:36:36;;;;;;;8.90;4.93;;;;;;;;;;4982928;28;20036;-80
2022/01/15 08:39:05;;;;;;;12.73;5.97;;;;;;;;;;5012365;28;20116;-81
2022/01/15 08:41:31;;;;;;;9.40;5.35;;;;;;;;;;4980411;28;20038;-81
2022/01/15 08:43:56;;;;;;;7.28;5.97;;;;;;;;;;4979976;28;20092;-81
2022/01/15 08:46:22;;;;;;;8.68;5.72;;;;;;;;;;5008360;28;20041;-81
2022/01/15 08:48:49;;;;;;;7.15;4.90;;;;;;;;;;5015070;28;20033;-80
2022/01/15 08:51:14;;;;;;;6.03;4.97;;;;;;;;;;4999289;28;20068;-78
2022/01/15 08:53:40;;;;;;;6.95;5.28;;;;;;;;;;5031609;28;20030;-78
2022/01/15 08:56:05;;;;;;;9.52;5.72;;;;;;;;;;5013854;28;20037;-78
2022/01/15 08:58:31;;;;;;;10.38;4.93;;;;;;;;;;5028762;28;20030;-78
2022/01/15 09:00:57;;;;;;;7.75;4.85;;;;;;;;;;4980074;28;20124;-80
2022/01/15 09:03:23;;;;;;;10.30;5.55;;;;;;;;;;4979663;28;20443;-79
2022/01/15 09:05:50;;;;;;;6.03;4.32;;;;;;;;;;4990228;28;20039;-81
2022/01/15 09:08:17;;;;;;;8.00;5.53;;;;;;;;;;4993725;28;20030;-81
2022/01/15 09:10:42;;;;;;;7.03;4.90;;;;;;;;;;4990192;28;20121;-81
2022/01/15 09:13:11;;;;;;;6.55;4.30;;;;;;;;;;4998376;28;20045;-81
2022/01/15 09:15:37;;;;;;;8.13;4.60;;;;;;;;;;5014338;28;20034;-81
2022/01/15 09:18:02;;;;;;;7.47;4.97;;;;;;;;;;4983047;28;20051;-85
2022/01/15 09:20:28;;;;;;;8.13;4.97;;;;;;;;;;5016191;28;20121;-84
2022/01/15 09:22:54;;;;;;;7.47;4.55;;;;;;;;;;4999306;28;20375;-85
2022/01/15 09:25:22;;;;;;;6.72;5.32;;;;;;;;;;4995409;28;20626;-85
2022/01/15 09:30:31;;;;;;;8.73;5.07;;;;;;;;;;4998268;28;20103;-84
2022/01/15 09:32:58;;;;;;;7.43;5.30;;;;;;;;;;4994504;28;20021;-84
2022/01/15 09:35:30;;;;;;;9.27;5.10;;;;;;;;;;5031321;28;20479;-86
2022/01/15 09:37:56;;;;;;;8.40;5.57;;;;;;;;;;5030091;28;20034;-81
2022/01/15 09:40:23;;;;;;;9.27;5.75;;;;;;;;;;4998257;28;20037;-81
2022/01/15 09:42:49;;;;;;;9.55;5.55;;;;;;;;;;5014740;28;20404;-80
2022/01/15 09:45:15;;;;;;;9.77;5.32;;;;;;;;;;5047296;28;20041;-77
2022/01/15 09:47:41;;;;;;;10.60;5.93;;;;;;;;;;5031013;28;20040;-79
2022/01/15 09:50:08;;;;;;;9.10;5.07;;;;;;;;;;5031169;28;20029;-79
2022/01/15 09:52:34;;;;;;;8.50;5.20;;;;;;;;;;5012969;28;20081;-80
2022/01/15 09:55:00;;;;;;;9.77;6.10;;;;;;;;;;5043505;28;20095;-80
2022/01/15 09:57:26;;;;;;;9.63;5.50;;;;;;;;;;5014643;28;20021;-80
2022/01/15 09:59:52;;;;;;;9.88;5.32;;;;;;;;;;5026822;28;20548;-80
2022/01/15 10:02:17;;;;;;;9.10;6.07;;;;;;;;;;5030211;28;20115;-80
2022/01/15 10:04:43;;;;;;;9.15;5.13;;;;;;;;;;5014417;28;20048;-80
2022/01/15 10:07:16;;;;;;;8.60;5.55;;;;;;;;;;4998395;28;20036;-80
2022/01/15 10:09:43;;;;;;;8.20;4.72;;;;;;;;;;5014762;28;20029;-80
2022/01/15 10:12:08;;;;;;;7.05;4.90;;;;;;;;;;5047051;28;20088;-80
2022/01/15 10:14:39;;;;;;;9.57;5.53;;;;;;;;;;5030016;28;20131;-80
2022/01/15 10:17:27;;;;;;;7.90;4.50;;;;;;;;;;5014393;28;20044;-81
2022/01/15 10:19:53;;;;;;;7.97;5.07;;;;;;;;;;4998321;28;20048;-80
2022/01/15 10:22:22;;;;;;;6.68;5.32;;;;;;;;;;4998042;28;20396;-80
2022/01/15 10:24:58;;;;;;;9.52;5.15;;;;;;;;;;4998056;28;20535;-79
2022/01/15 10:27:32;;;;;;;11.02;5.07;;;;;;;;;;5030483;28;20030;-81
2022/01/15 10:30:12;;;;;;;7.55;4.80;;;;;;;;;;5030921;28;20034;-80
2022/01/15 10:32:51;;;;;;;7.75;6.18;;;;;;;;;;5017195;28;20025;-81
2022/01/15 10:35:16;;;;;;;8.40;5.82;;;;;;;;;;5000012;28;20481;-80
2022/01/15 10:37:49;;;;;;;6.35;4.65;;;;;;;;;;4978434;28;20029;-80
2022/01/15 10:40:15;;;;;;;7.03;5.38;;;;;;;;;;4994556;28;20392;-80
2022/01/15 10:42:40;;;;;;;6.82;5.15;;;;;;;;;;4978138;28;20030;-80
2022/01/15 10:45:11;;;;;;;8.15;5.47;;;;;;;;;;4994478;28;20099;-81
2022/01/15 10:47:47;;;;;;;6.68;5.15;;;;;;;;;;4994388;28;20041;-81
2022/01/15 10:50:20;;;;;;;8.02;6.05;;;;;;;;;;4995259;28;20050;-80
2022/01/15 10:52:45;;;;;;;6.05;5.13;;;;;;;;;;4993502;28;20083;-80
2022/01/15 10:55:12;;;;;;;7.13;5.68;;;;;;;;;;4977853;28;20029;-81
2022/01/15 10:57:42;;;;;;;6.35;5.15;;;;;;;;;;4978518;28;20129;-80
2022/01/15 11:00:08;;;;;;;5.93;4.90;;;;;;;;;;4978478;28;20088;-81
2022/01/15 11:02:34;;;;;;;7.90;5.03;;;;;;;;;;4993711;28;20030;-81
2022/01/15 11:05:00;;;;;;;5.80;4.90;;;;;;;;;;4994451;28;20081;-80
2022/01/15 11:07:25;;;;;;;6.65;4.85;;;;;;;;;;4994200;28;20030;-81
2022/01/15 11:09:53;;;;;;;7.00;5.65;;;;;;;;;;4993274;28;20033;-80
2022/01/15 11:12:19;;;;;;;7.38;5.10;;;;;;;;;;5014196;28;20476;-81
2022/01/15 11:14:44;;;;;;;8.52;5.75;;;;;;;;;;5013323;28;20044;-81
2022/01/15 11:17:09;;;;;;;6.25;4.95;;;;;;;;;;5030149;28;20406;-81
2022/01/15 11:19:35;;;;;;;7.35;5.72;;;;;;;;;;5013789;28;20057;-80
2022/01/15 11:22:01;;;;;;;7.00;4.95;;;;;;;;;;5014016;28;20029;-82
2022/01/15 11:24:27;;;;;;;8.30;6.10;;;;;;;;;;5029810;28;20820;-80
2022/01/15 11:26:58;;;;;;;7.38;5.47;;;;;;;;;;5029814;28;20039;-80
2022/01/15 11:29:24;;;;;;;6.68;4.90;;;;;;;;;;5013660;28;20545;-80
2022/01/15 11:31:56;;;;;;;6.00;4.88;;;;;;;;;;5013826;28;20061;-80
2022/01/15 11:34:23;;;;;;;7.85;5.20;;;;;;;;;;4997354;28;20025;-80
2022/01/15 11:36:49;;;;;;;5.40;4.90;;;;;;;;;;4997446;28;20581;-80
2022/01/15 11:39:20;;;;;;;7.03;5.40;;;;;;;;;;5013799;28;20065;-80
2022/01/15 11:41:52;;;;;;;7.55;5.05;;;;;;;;;;5030077;28;20037;-80
2022/01/15 11:44:29;;;;;;;6.50;5.22;;;;;;;;;;4982146;28;20563;-81
2022/01/15 11:46:56;;;;;;;6.28;4.97;;;;;;;;;;5029628;28;20041;-80
2022/01/15 11:49:27;;;;;;;6.50;5.32;;;;;;;;;;4980824;28;20506;-80
2022/01/15 11:52:18;;;;;;;5.97;4.65;;;;;;;;;;5030032;28;20487;-80
2022/01/15 11:54:59;;;;;;;7.95;5.20;;;;;;;;;;5020290;28;20128;-80
2022/01/15 11:57:27;;;;;;;7.03;5.35;;;;;;;;;;5029454;28;20108;-80
2022/01/15 11:59:59;;;;;;;6.18;4.97;;;;;;;;;;4997262;28;20373;-80
2022/01/15 12:02:30;;;;;;;6.53;5.43;;;;;;;;;;5013421;28;20033;-80
2022/01/15 12:05:18;;;;;;;6.32;4.80;;;;;;;;;;5017692;28;20591;-80
2022/01/15 12:07:59;;;;;;;6.03;4.82;;;;;;;;;;5017298;28;20030;-80
2022/01/15 12:10:43;;;;;;;7.28;5.75;;;;;;;;;;5016845;28;20029;-80
2022/01/15 12:13:19;;;;;;;6.60;5.82;;;;;;;;;;5016595;28;20029;-81
2022/01/15 12:15:45;;;;;;;6.50;5.13;;;;;;;;;;5016766;28;20029;-80
2022/01/15 12:18:15;;;;;;;5.85;5.10;;;;;;;;;;5000053;28;20037;-80
2022/01/15 12:20:41;;;;;;;6.40;5.22;;;;;;;;;;5016499;28;20055;-80
2022/01/15 12:23:18;;;;;;;5.55;4.85;;;;;;;;;;5033111;28;20025;-80
2022/01/15 12:25:44;;;;;;;6.50;4.90;;;;;;;;;;5032729;28;20029;-80
2022/01/15 12:28:13;;;;;;;6.32;5.40;;;;;;;;;;5016380;28;20025;-80
2022/01/15 12:30:40;;;;;;;6.50;5.05;;;;;;;;;;5016341;28;20033;-80
2022/01/15 12:33:06;;;;;;;7.10;5.07;;;;;;;;;;5038978;28;20487;-80
2022/01/15 12:35:36;;;;;;;6.10;4.97;;;;;;;;;;5019492;28;20038;-80
2022/01/15 12:38:16;;;;;;;6.70;5.35;;;;;;;;;;4984178;28;20029;-80
2022/01/15 12:40:52;;;;;;;6.95;5.63;;;;;;;;;;4983931;28;20091;-80
2022/01/15 12:43:23;;;;;;;8.07;5.75;;;;;;;;;;5016448;28;20116;-80
2022/01/15 12:45:59;;;;;;;6.57;4.90;;;;;;;;;;4984219;28;20387;-80
2022/01/15 12:48:29;;;;;;;6.15;5.05;;;;;;;;;;5016281;28;20037;-80
2022/01/15 12:50:56;;;;;;;7.20;5.68;;;;;;;;;;5016267;28;20037;-80
2022/01/15 12:53:26;;;;;;;6.93;5.30;;;;;;;;;;4983225;28;20033;-80
2022/01/15 12:55:52;;;;;;;6.78;5.40;;;;;;;;;;4999413;28;20030;-80
2022/01/15 12:58:19;;;;;;;8.55;6.22;;;;;;;;;;4999735;28;20424;-80
2022/01/15 13:00:45;;;;;;;5.72;5.03;;;;;;;;;;4999870;28;20029;-80
2022/01/15 13:03:14;;;;;;;6.50;5.57;;;;;;;;;;4983207;28;20438;-79
2022/01/15 13:05:39;;;;;;;6.90;5.80;;;;;;;;;;4983469;28;20025;-80
2022/01/15 13:08:10;;;;;;;7.28;6.10;;;;;;;;;;5015498;28;20036;-79
2022/01/15 13:10:47;;;;;;;7.40;5.47;;;;;;;;;;5015800;28;20369;-79
2022/01/15 13:13:23;;;;;;;7.35;5.55;;;;;;;;;;5032618;28;20085;-79
2022/01/15 13:16:09;;;;;;;6.05;5.25;;;;;;;;;;5015006;28;20025;-80
2022/01/15 13:18:38;;;;;;;7.45;6.05;;;;;;;;;;5031836;28;20483;-80
2022/01/15 13:21:05;;;;;;;6.32;5.57;;;;;;;;;;5015698;28;20064;-79
2022/01/15 13:23:40;;;;;;;6.20;5.32;;;;;;;;;;5015067;28;20036;-79
2022/01/15 13:26:05;;;;;;;6.65;5.93;;;;;;;;;;5031294;28;20037;-79
2022/01/15 13:28:33;;;;;;;7.40;6.38;;;;;;;;;;5011373;28;20045;-79
2022/01/15 13:30:59;;;;;;;7.03;6.13;;;;;;;;;;4995777;28;20032;-79
2022/01/15 13:33:42;;;;;;;6.38;5.70;;;;;;;;;;5014078;28;20033;-79
2022/01/15 13:36:09;;;;;;;6.18;5.45;;;;;;;;;;5011940;28;20129;-79
2022/01/15 13:38:36;;;;;;;8.80;6.35;;;;;;;;;;5028079;28;20034;-79
2022/01/15 13:41:22;;;;;;;7.60;6.30;;;;;;;;;;5011524;28;20496;-79
2022/01/15 13:43:54;;;;;;;7.43;5.65;;;;;;;;;;5011473;28;20519;-80
2022/01/15 13:46:21;;;;;;;7.63;5.67;;;;;;;;;;4995305;28;20473;-79
2022/01/15 13:48:53;;;;;;;7.47;6.45;;;;;;;;;;4995202;28;20034;-80
2022/01/15 13:54:30;;;;;;;7.35;6.10;;;;;;;;;;5028002;28;20026;-80
2022/01/15 13:57:02;;;;;;;9.07;6.43;;;;;;;;;;4992435;28;20132;-81
2022/01/15 13:59:28;;;;;;;;;;;;;;;;;;5012375;28;20046;-82
2022/01/15 14:01:56;;;;;;;8.30;6.10;;;;;;;;;;4994978;28;20382;-81
2022/01/15 14:04:33;;;;;;;6.93;6.10;;;;;;;;;;5027762;28;20041;-81
2022/01/15 14:07:05;;;;;;;8.43;6.38;;;;;;;;;;5027689;28;20026;-81
2022/01/15 14:09:32;;;;;;;7.72;6.32;;;;;;;;;;5027909;28;20480;-79
2022/01/15 14:12:00;;;;;;;7.97;6.75;;;;;;;;;;5014885;28;20061;-79
2022/01/15 14:14:27;;;;;;;7.57;6.28;;;;;;;;;;5031044;28;20077;-81
2022/01/15 14:16:54;;;;;;;9.70;7.10;;;;;;;;;;4997886;28;20466;-80
2022/01/15 14:21:57;;;;;;;10.93;7.30;;;;;;;;;;5045135;28;20120;-79
2022/01/15 14:24:25;;;;;;;7.25;6.35;;;;;;;;;;4998034;28;20045;-79
2022/01/15 14:26:57;;;;;;;7.65;6.35;;;;;;;;;;4997706;28;20618;-79
2022/01/15 14:29:26;;;;;;;7.53;5.47;;;;;;;;;;4999227;28;20041;-79
2022/01/15 14:31:55;;;;;;;8.55;6.85;;;;;;;;;;4998236;28;20034;-79
2022/01/15 14:34:21;;;;;;;9.18;6.93;;;;;;;;;;5025503;28;20033;-79
2022/01/15 14:36:47;;;;;;;9.05;7.18;;;;;;;;;;5030749;28;20055;-79
2022/01/15 14:39:16;;;;;;;7.85;5.93;;;;;;;;;;5014047;28;20091;-79
2022/01/15 14:41:41;;;;;;;9.10;6.90;;;;;;;;;;5014352;28;20415;-79
2022/01/15 14:44:07;;;;;;;8.90;7.78;;;;;;;;;;5030876;28;20048;-79
2022/01/15 14:46:32;;;;;;;8.25;6.38;;;;;;;;;;5029964;28;20029;-79
2022/01/15 14:48:58;;;;;;;8.60;6.78;;;;;;;;;;5030590;28;20051;-79
2022/01/15 14:51:25;;;;;;;9.02;7.65;;;;;;;;;;5030844;28;20043;-79
2022/01/15 14:53:51;;;;;;;8.52;7.63;;;;;;;;;;5013434;28;20087;-79
2022/01/15 14:56:16;;;;;;;9.90;7.50;;;;;;;;;;5030173;28;20026;-79
2022/01/15 14:58:42;;;;;;;9.27;7.30;;;;;;;;;;5030204;28;20041;-79
2022/01/15 15:01:08;;;;;;;9.60;7.20;;;;;;;;;;5014371;28;20029;-79
2022/01/15 15:03:34;;;;;;;9.20;7.40;;;;;;;;;;5030219;28;20036;-79